createdAt,value
2022-08-01T00:02:24.582Z,94.55
2022-08-01T00:07:27.456Z,94.49
2022-08-01T00:12:30.224Z,94.19
2022-08-01T00:17:33.120Z,94.20
2022-08-01T00:22:36.114Z,94.16
2022-08-01T00:27:38.973Z,94.20
2022-08-01T00:32:44.905Z,93.83
2022-08-01T00:37:47.800Z,93.72
2022-08-01T00:42:50.591Z,93.59
2022-08-01T00:47:54.906Z,93.43
2022-08-01T00:52:59.199Z,93.51
2022-08-01T00:58:05.181Z,93.61
2022-08-01T01:03:09.776Z,93.29
2022-08-01T01:08:24.457Z,93.60
2022-08-01T01:13:48.457Z,93.56
2022-08-01T01:19:00.427Z,93.46
2022-08-01T01:24:40.045Z,93.56
2022-08-01T01:30:00.253Z,93.67
2022-08-01T01:35:26.987Z,93.63
2022-08-01T01:40:29.844Z,93.49
2022-08-01T01:45:32.657Z,93.51
2022-08-01T01:50:35.431Z,93.34
2022-08-01T01:55:49.099Z,93.28
2022-08-01T02:00:53.951Z,93.09
2022-08-01T02:05:58.120Z,93.00
2022-08-01T02:11:20.633Z,93.04
2022-08-01T02:16:26.335Z,92.98
2022-08-01T02:21:33.625Z,93.09
2022-08-01T02:26:36.555Z,93.15
2022-08-01T02:31:40.873Z,93.04
2022-08-01T02:36:43.605Z,93.12
2022-08-01T02:41:49.320Z,93.05
2022-08-01T02:47:05.769Z,92.84
2022-08-01T02:52:09.975Z,92.75
2022-08-01T02:57:13.981Z,92.70
2022-08-01T03:02:17.072Z,92.72
2022-08-01T03:07:19.816Z,92.54
2022-08-01T03:12:28.146Z,92.59
2022-08-01T03:17:31.045Z,92.61
2022-08-01T03:22:33.907Z,92.78
2022-08-01T03:27:37.729Z,93.08
2022-08-01T03:32:40.684Z,93.18
2022-08-01T03:38:14.807Z,93.50
2022-08-01T03:43:23.721Z,93.88
2022-08-01T03:48:29.977Z,94.09
2022-08-01T03:53:33.154Z,94.20
2022-08-01T03:58:37.710Z,94.67
2022-08-01T04:10:59.612Z,94.35
2022-08-01T04:16:02.510Z,94.10
2022-08-01T04:21:05.273Z,94.10
2022-08-01T04:26:08.143Z,94.08
2022-08-01T04:31:10.943Z,93.61
2022-08-01T04:36:13.887Z,93.21
2022-08-01T04:41:16.734Z,92.99
2022-08-01T04:46:19.502Z,92.72
2022-08-01T04:51:23.424Z,92.43
2022-08-01T04:56:26.249Z,92.40
2022-08-01T05:01:29.151Z,92.18
2022-08-01T05:06:32.010Z,91.40
2022-08-01T05:11:34.916Z,90.90
2022-08-01T05:16:37.748Z,90.50
2022-08-01T05:21:40.724Z,90.53
2022-08-01T05:26:43.513Z,90.47
2022-08-01T05:31:47.359Z,90.38
2022-08-01T05:36:52.977Z,90.14
2022-08-01T05:41:59.567Z,89.81
2022-08-01T05:47:03.765Z,89.72
2022-08-01T05:52:06.945Z,89.58
2022-08-01T05:57:10.051Z,89.45
2022-08-01T06:02:14.140Z,88.48
2022-08-01T06:07:16.987Z,88.42
2022-08-01T06:12:19.841Z,87.81
2022-08-01T06:17:22.609Z,87.29
2022-08-01T06:22:25.650Z,86.93
2022-08-01T06:27:28.624Z,87.20
2022-08-01T06:32:32.187Z,86.73
2022-08-01T06:37:34.963Z,85.02
2022-08-01T06:42:38.184Z,84.79
2022-08-01T06:47:41.567Z,84.42
2022-08-01T06:52:44.441Z,84.34
2022-08-01T06:57:50.939Z,81.87
2022-08-01T07:02:55.830Z,80.00
2022-08-01T07:07:59.237Z,79.03
2022-08-01T07:13:02.067Z,78.20
2022-08-01T07:18:05.768Z,75.76
2022-08-01T07:23:09.398Z,75.61
2022-08-01T07:28:16.593Z,75.92
2022-08-01T07:33:19.405Z,73.34
2022-08-01T07:38:22.288Z,71.83
2022-08-01T07:43:25.120Z,70.82
2022-08-01T07:48:28.139Z,71.86
2022-08-01T07:53:30.991Z,70.07
2022-08-01T07:58:34.787Z,70.24
2022-08-01T08:03:37.625Z,69.50
2022-08-01T08:08:40.540Z,67.62
2022-08-01T08:13:43.286Z,67.32
2022-08-01T08:18:46.173Z,65.58
2022-08-01T08:24:08.038Z,64.92
2022-08-01T08:29:12.345Z,63.64
2022-08-01T08:34:15.143Z,65.17
2022-08-01T08:39:19.907Z,63.40
2022-08-01T08:44:23.021Z,62.91
2022-08-01T08:49:35.661Z,58.99
2022-08-01T08:54:39.915Z,57.33
2022-08-01T08:59:46.666Z,57.47
2022-08-01T09:04:51.075Z,57.49
2022-08-01T09:09:53.887Z,58.46
2022-08-01T09:14:57.985Z,58.71
2022-08-01T09:20:00.808Z,58.42
2022-08-01T09:25:09.810Z,56.58
2022-08-01T09:30:19.333Z,55.99
2022-08-01T09:35:29.817Z,56.93
2022-08-01T09:41:00.313Z,57.21
2022-08-01T09:46:14.481Z,55.96
2022-08-01T09:51:58.624Z,55.86
2022-08-01T09:56:43.462Z,56.06
2022-08-01T10:01:49.340Z,54.34
2022-08-01T10:06:55.675Z,52.56
2022-08-01T10:11:59.714Z,49.41
2022-08-01T10:17:05.198Z,48.83
2022-08-01T10:22:11.090Z,50.46
2022-08-01T10:27:24.240Z,50.90
2022-08-01T10:32:28.961Z,48.57
2022-08-01T10:37:34.810Z,45.63
2022-08-01T10:42:37.548Z,43.22
2022-08-01T10:48:21.869Z,42.12
2022-08-01T10:53:31.699Z,44.27
2022-08-01T10:58:47.596Z,41.98
2022-08-01T11:04:02.861Z,40.72
2022-08-01T11:09:40.703Z,39.67
2022-08-01T11:14:58.884Z,38.99
2022-08-01T11:20:22.537Z,37.52
2022-08-01T11:26:05.247Z,36.35
2022-08-01T11:31:08.050Z,37.26
2022-08-01T11:36:15.782Z,35.96
2022-08-01T11:41:38.276Z,33.99
2022-08-01T11:47:08.784Z,31.01
2022-08-01T11:52:19.297Z,29.95
2022-08-01T11:57:24.356Z,28.88
2022-08-01T12:02:37.721Z,28.72
2022-08-01T12:07:42.619Z,27.19
2022-08-01T12:12:50.222Z,26.55
2022-08-01T12:18:01.449Z,24.57
2022-08-01T12:23:09.934Z,24.91
2022-08-01T12:28:14.883Z,25.45
2022-08-01T12:33:18.929Z,25.07
2022-08-01T12:38:27.940Z,25.50
2022-08-01T12:43:30.728Z,24.33
2022-08-01T12:48:33.472Z,23.34
2022-08-01T12:53:41.269Z,21.82
2022-08-01T12:58:44.623Z,21.92
2022-08-01T13:04:05.334Z,21.27
2022-08-01T13:09:10.064Z,20.15
2022-08-01T13:14:28.299Z,20.15
2022-08-01T13:19:48.251Z,20.00
2022-08-01T13:24:51.034Z,20.68
2022-08-01T13:29:54.509Z,20.45
2022-08-01T13:35:04.982Z,21.11
2022-08-01T13:40:09.537Z,20.92
2022-08-01T13:45:14.543Z,20.15
2022-08-01T13:50:18.041Z,19.88
2022-08-01T13:55:20.943Z,20.71
2022-08-01T14:00:23.686Z,21.23
2022-08-01T14:05:26.434Z,21.00
2022-08-01T14:10:29.259Z,21.65
2022-08-01T14:15:38.369Z,20.64
2022-08-01T14:20:43.065Z,20.08
2022-08-01T14:26:02.773Z,21.04
2022-08-01T14:31:09.026Z,22.18
2022-08-01T14:36:29.334Z,22.31
2022-08-01T14:41:33.713Z,22.75
2022-08-01T14:46:36.574Z,24.08
2022-08-01T14:51:39.700Z,22.82
2022-08-01T14:56:42.466Z,24.46
2022-08-01T15:01:45.241Z,26.89
2022-08-01T15:06:48.688Z,30.41
2022-08-01T15:11:51.465Z,31.92
2022-08-01T15:16:54.226Z,32.58
2022-08-01T15:21:57.035Z,33.04
2022-08-01T15:26:59.890Z,34.15
2022-08-01T15:32:04.699Z,33.97
2022-08-01T15:37:07.921Z,35.68
2022-08-01T15:42:13.283Z,35.60
2022-08-01T15:47:25.166Z,37.13
2022-08-01T15:52:31.779Z,38.59
2022-08-01T15:57:35.003Z,38.67
2022-08-01T16:02:37.820Z,39.40
2022-08-01T16:07:59.413Z,39.56
2022-08-01T16:13:07.520Z,39.25
2022-08-01T16:18:13.132Z,40.18
2022-08-01T16:23:15.925Z,41.52
2022-08-01T16:28:19.717Z,41.89
2022-08-01T16:33:47.543Z,42.73
2022-08-01T16:38:46.413Z,43.88
2022-08-01T16:43:53.405Z,43.88
2022-08-01T16:48:57.464Z,43.73
2022-08-01T16:54:00.817Z,44.17
2022-08-01T16:59:03.683Z,43.42
2022-08-01T17:04:06.652Z,42.69
2022-08-01T17:09:09.687Z,42.87
2022-08-01T17:14:12.485Z,43.17
2022-08-01T17:19:15.372Z,43.16
2022-08-01T17:24:18.738Z,43.95
2022-08-01T17:29:21.504Z,44.30
2022-08-01T17:34:24.344Z,44.85
2022-08-01T17:39:38.455Z,45.50
2022-08-01T17:44:42.066Z,46.48
2022-08-01T17:49:55.035Z,47.28
2022-08-01T17:54:58.802Z,47.49
2022-08-01T18:00:01.823Z,47.45
2022-08-01T18:05:04.868Z,47.96
2022-08-01T18:10:13.533Z,48.20
2022-08-01T18:15:23.386Z,49.12
2022-08-01T18:20:30.087Z,49.59
2022-08-01T18:25:34.026Z,49.74
2022-08-01T18:30:36.984Z,50.20
2022-08-01T18:35:52.385Z,50.71
2022-08-01T18:40:56.861Z,50.95
2022-08-01T18:46:01.330Z,51.61
2022-08-01T18:51:04.115Z,52.07
2022-08-01T18:56:12.138Z,53.27
2022-08-01T19:01:15.149Z,54.19
2022-08-01T19:06:17.952Z,55.82
2022-08-01T19:11:21.023Z,56.72
2022-08-01T19:16:23.826Z,57.19
2022-08-01T19:21:26.802Z,58.40
2022-08-01T19:26:29.686Z,59.23
2022-08-01T19:31:32.498Z,59.65
2022-08-01T19:36:38.665Z,60.22
2022-08-01T19:41:41.805Z,60.86
2022-08-01T19:46:44.662Z,62.14
2022-08-01T19:51:50.447Z,62.21
2022-08-01T19:56:53.414Z,62.27
2022-08-01T20:01:56.827Z,62.23
2022-08-01T20:06:59.689Z,62.43
2022-08-01T20:12:02.528Z,62.96
2022-08-01T20:17:05.810Z,62.66
2022-08-01T20:22:08.579Z,63.62
2022-08-01T20:27:15.851Z,64.47
2022-08-01T20:32:18.818Z,64.86
2022-08-01T20:38:04.100Z,65.25
2022-08-01T20:42:45.043Z,65.68
2022-08-01T20:47:48.124Z,66.26
2022-08-01T20:52:51.856Z,66.84
2022-08-01T20:57:54.783Z,66.91
2022-08-01T21:03:15.691Z,67.01
2022-08-01T21:08:41.020Z,67.55
2022-08-01T21:13:49.169Z,67.46
2022-08-01T21:19:18.691Z,68.35
2022-08-01T21:24:23.358Z,68.69
2022-08-01T21:29:26.143Z,68.40
2022-08-01T21:34:29.914Z,68.67
2022-08-01T21:39:34.471Z,69.17
2022-08-01T21:44:45.496Z,69.29
2022-08-01T21:49:48.262Z,69.68
2022-08-01T21:55:35.486Z,70.19
2022-08-01T22:00:40.643Z,70.68
2022-08-01T22:05:50.483Z,70.46
2022-08-01T22:10:58.967Z,70.98
2022-08-01T22:16:03.944Z,71.56
2022-08-01T22:21:06.814Z,71.67
2022-08-01T22:26:11.049Z,71.61
2022-08-01T22:31:16.208Z,71.65
2022-08-01T22:36:19.011Z,72.36
2022-08-01T22:41:29.215Z,72.71
2022-08-01T22:46:49.065Z,72.62
2022-08-01T22:52:08.175Z,72.71
2022-08-01T22:57:16.099Z,73.06
2022-08-01T23:02:19.846Z,73.35
2022-08-01T23:07:24.458Z,72.82
2022-08-01T23:12:27.683Z,73.22
2022-08-01T23:17:31.705Z,73.55
2022-08-01T23:22:36.443Z,73.56
2022-08-01T23:27:52.069Z,73.74
2022-08-01T23:33:07.887Z,74.12
2022-08-01T23:38:11.015Z,74.40
2022-08-01T23:43:17.233Z,74.54
2022-08-01T23:48:20.794Z,74.99
2022-08-01T23:53:23.586Z,75.49
2022-08-01T23:58:26.493Z,75.76
